sensor_id;sensor_type;location;lat;lon;timestamp;temperature;humidity
17489;DHT22;8861;52.644;4.734;2023-09-07T00:00:02;19.40;99.90
17489;DHT22;8861;52.644;4.734;2023-09-07T00:02:31;19.40;99.90
17489;DHT22;8861;52.644;4.734;2023-09-07T00:04:58;19.30;99.90
17489;DHT22;8861;52.644;4.734;2023-09-07T00:07:25;19.30;99.90
17489;DHT22;8861;52.644;4.734;2023-09-07T00:09:54;19.30;99.90
17489;DHT22;8861;52.644;4.734;2023-09-07T00:12:21;19.20;99.90
17489;DHT22;8861;52.644;4.734;2023-09-07T00:14:48;19.20;99.90
17489;DHT22;8861;52.644;4.734;2023-09-07T00:17:15;19.20;99.90
17489;DHT22;8861;52.644;4.734;2023-09-07T00:19:42;19.20;99.90
17489;DHT22;8861;52.644;4.734;2023-09-07T00:22:09;19.20;99.90
17489;DHT22;8861;52.644;4.734;2023-09-07T00:24:36;19.20;99.90
17489;DHT22;8861;52.644;4.734;2023-09-07T00:27:05;19.10;99.90
17489;DHT22;8861;52.644;4.734;2023-09-07T00:29:34;19.10;99.90
17489;DHT22;8861;52.644;4.734;2023-09-07T00:32:01;19.00;99.90
17489;DHT22;8861;52.644;4.734;2023-09-07T00:34:28;19.10;99.90
17489;DHT22;8861;52.644;4.734;2023-09-07T00:36:56;19.00;99.90
17489;DHT22;8861;52.644;4.734;2023-09-07T00:39:23;19.00;99.90
17489;DHT22;8861;52.644;4.734;2023-09-07T00:41:50;19.00;99.90
17489;DHT22;8861;52.644;4.734;2023-09-07T00:44:18;18.90;99.90
17489;DHT22;8861;52.644;4.734;2023-09-07T00:46:45;18.90;99.90
17489;DHT22;8861;52.644;4.734;2023-09-07T00:49:13;18.90;99.90
17489;DHT22;8861;52.644;4.734;2023-09-07T00:51:40;18.90;99.90
17489;DHT22;8861;52.644;4.734;2023-09-07T00:54:08;18.80;99.90
17489;DHT22;8861;52.644;4.734;2023-09-07T00:56:36;18.80;99.90
17489;DHT22;8861;52.644;4.734;2023-09-07T00:59:04;18.80;99.90
17489;DHT22;8861;52.644;4.734;2023-09-07T01:01:35;18.80;99.90
17489;DHT22;8861;52.644;4.734;2023-09-07T01:04:02;18.80;99.90
17489;DHT22;8861;52.644;4.734;2023-09-07T01:06:31;18.80;99.90
17489;DHT22;8861;52.644;4.734;2023-09-07T01:09:05;18.80;99.90
17489;DHT22;8861;52.644;4.734;2023-09-07T01:11:36;18.70;99.90
17489;DHT22;8861;52.644;4.734;2023-09-07T01:14:04;18.70;99.90
17489;DHT22;8861;52.644;4.734;2023-09-07T01:16:31;18.70;99.90
17489;DHT22;8861;52.644;4.734;2023-09-07T01:19:01;18.60;99.90
17489;DHT22;8861;52.644;4.734;2023-09-07T01:21:34;18.60;99.90
17489;DHT22;8861;52.644;4.734;2023-09-07T01:24:03;18.60;99.90
17489;DHT22;8861;52.644;4.734;2023-09-07T01:26:31;18.60;99.90
17489;DHT22;8861;52.644;4.734;2023-09-07T01:28:58;18.60;99.90
17489;DHT22;8861;52.644;4.734;2023-09-07T01:31:25;18.60;99.90
17489;DHT22;8861;52.644;4.734;2023-09-07T01:33:52;18.60;99.90
17489;DHT22;8861;52.644;4.734;2023-09-07T01:36:19;18.50;99.90
17489;DHT22;8861;52.644;4.734;2023-09-07T01:38:48;18.50;99.90
17489;DHT22;8861;52.644;4.734;2023-09-07T01:41:15;18.40;99.90
17489;DHT22;8861;52.644;4.734;2023-09-07T01:43:42;18.40;99.90
17489;DHT22;8861;52.644;4.734;2023-09-07T01:46:09;18.40;99.90
17489;DHT22;8861;52.644;4.734;2023-09-07T01:48:36;18.40;99.90
17489;DHT22;8861;52.644;4.734;2023-09-07T01:51:04;18.40;99.90
17489;DHT22;8861;52.644;4.734;2023-09-07T01:53:31;18.40;99.90
17489;DHT22;8861;52.644;4.734;2023-09-07T01:55:59;18.40;99.90
17489;DHT22;8861;52.644;4.734;2023-09-07T01:58:26;18.40;99.90
17489;DHT22;8861;52.644;4.734;2023-09-07T02:00:57;18.40;99.90
17489;DHT22;8861;52.644;4.734;2023-09-07T02:03:24;18.40;99.90
17489;DHT22;8861;52.644;4.734;2023-09-07T02:05:52;18.40;99.90
17489;DHT22;8861;52.644;4.734;2023-09-07T02:08:19;18.40;99.90
17489;DHT22;8861;52.644;4.734;2023-09-07T02:10:46;18.40;99.90
17489;DHT22;8861;52.644;4.734;2023-09-07T02:13:15;18.40;99.90
17489;DHT22;8861;52.644;4.734;2023-09-07T02:15:42;18.40;99.90
17489;DHT22;8861;52.644;4.734;2023-09-07T02:18:09;18.40;99.90
17489;DHT22;8861;52.644;4.734;2023-09-07T02:20:36;18.40;99.90
17489;DHT22;8861;52.644;4.734;2023-09-07T02:23:03;18.40;99.90
17489;DHT22;8861;52.644;4.734;2023-09-07T02:25:30;18.40;99.90
17489;DHT22;8861;52.644;4.734;2023-09-07T02:27:57;18.30;99.90
17489;DHT22;8861;52.644;4.734;2023-09-07T02:30:25;18.30;99.90
17489;DHT22;8861;52.644;4.734;2023-09-07T02:32:52;18.30;99.90
17489;DHT22;8861;52.644;4.734;2023-09-07T02:35:20;18.30;99.90
17489;DHT22;8861;52.644;4.734;2023-09-07T02:37:48;18.30;99.90
17489;DHT22;8861;52.644;4.734;2023-09-07T02:40:15;18.30;99.90
17489;DHT22;8861;52.644;4.734;2023-09-07T02:42:42;18.30;99.90
17489;DHT22;8861;52.644;4.734;2023-09-07T02:45:10;18.30;99.90
17489;DHT22;8861;52.644;4.734;2023-09-07T02:47:39;18.30;99.90
17489;DHT22;8861;52.644;4.734;2023-09-07T02:50:07;18.30;99.90
17489;DHT22;8861;52.644;4.734;2023-09-07T02:52:34;18.30;99.90
17489;DHT22;8861;52.644;4.734;2023-09-07T02:55:01;18.30;99.90
17489;DHT22;8861;52.644;4.734;2023-09-07T02:57:28;18.20;99.90
17489;DHT22;8861;52.644;4.734;2023-09-07T02:59:55;18.30;99.90
17489;DHT22;8861;52.644;4.734;2023-09-07T03:02:22;18.20;99.90
17489;DHT22;8861;52.644;4.734;2023-09-07T03:04:54;18.20;99.90
17489;DHT22;8861;52.644;4.734;2023-09-07T03:07:24;18.20;99.90
17489;DHT22;8861;52.644;4.734;2023-09-07T03:09:52;18.20;99.90
17489;DHT22;8861;52.644;4.734;2023-09-07T03:12:19;18.20;99.90
17489;DHT22;8861;52.644;4.734;2023-09-07T03:14:46;18.20;99.90
17489;DHT22;8861;52.644;4.734;2023-09-07T03:17:14;18.20;99.90
17489;DHT22;8861;52.644;4.734;2023-09-07T03:19:42;18.10;99.90
17489;DHT22;8861;52.644;4.734;2023-09-07T03:22:10;18.10;99.90
17489;DHT22;8861;52.644;4.734;2023-09-07T03:24:37;18.10;99.90
17489;DHT22;8861;52.644;4.734;2023-09-07T03:27:05;18.10;99.90
17489;DHT22;8861;52.644;4.734;2023-09-07T03:29:32;18.00;99.90
17489;DHT22;8861;52.644;4.734;2023-09-07T03:32:01;18.10;99.90
17489;DHT22;8861;52.644;4.734;2023-09-07T03:34:28;18.10;99.90
17489;DHT22;8861;52.644;4.734;2023-09-07T03:36:55;18.10;99.90
17489;DHT22;8861;52.644;4.734;2023-09-07T03:39:24;18.20;99.90
17489;DHT22;8861;52.644;4.734;2023-09-07T03:41:51;18.20;99.90
17489;DHT22;8861;52.644;4.734;2023-09-07T03:44:18;18.20;99.90
17489;DHT22;8861;52.644;4.734;2023-09-07T03:46:46;18.20;99.90
17489;DHT22;8861;52.644;4.734;2023-09-07T03:49:13;18.30;99.90
17489;DHT22;8861;52.644;4.734;2023-09-07T03:51:40;18.30;99.90
17489;DHT22;8861;52.644;4.734;2023-09-07T03:54:07;18.30;99.90
17489;DHT22;8861;52.644;4.734;2023-09-07T03:56:35;18.30;99.90
17489;DHT22;8861;52.644;4.734;2023-09-07T03:59:02;18.30;99.90
17489;DHT22;8861;52.644;4.734;2023-09-07T04:01:29;18.40;99.90
17489;DHT22;8861;52.644;4.734;2023-09-07T04:03:56;18.40;99.90
17489;DHT22;8861;52.644;4.734;2023-09-07T04:06:23;18.40;99.90
17489;DHT22;8861;52.644;4.734;2023-09-07T04:08:50;18.40;99.90
17489;DHT22;8861;52.644;4.734;2023-09-07T04:11:17;18.40;99.90
17489;DHT22;8861;52.644;4.734;2023-09-07T04:13:46;18.40;99.90
17489;DHT22;8861;52.644;4.734;2023-09-07T04:16:14;18.40;99.90
17489;DHT22;8861;52.644;4.734;2023-09-07T04:18:41;18.40;99.90
17489;DHT22;8861;52.644;4.734;2023-09-07T04:21:10;18.30;99.90
17489;DHT22;8861;52.644;4.734;2023-09-07T04:23:37;18.30;99.90
17489;DHT22;8861;52.644;4.734;2023-09-07T04:26:06;18.30;99.90
17489;DHT22;8861;52.644;4.734;2023-09-07T04:28:34;18.30;99.90
17489;DHT22;8861;52.644;4.734;2023-09-07T04:31:03;18.30;99.90
17489;DHT22;8861;52.644;4.734;2023-09-07T04:33:30;18.30;99.90
17489;DHT22;8861;52.644;4.734;2023-09-07T04:36:05;18.30;99.90
17489;DHT22;8861;52.644;4.734;2023-09-07T04:38:32;18.20;99.90
17489;DHT22;8861;52.644;4.734;2023-09-07T04:41:06;18.20;99.90
17489;DHT22;8861;52.644;4.734;2023-09-07T04:43:33;18.20;99.90
17489;DHT22;8861;52.644;4.734;2023-09-07T04:46:01;18.10;99.90
17489;DHT22;8861;52.644;4.734;2023-09-07T04:48:29;18.10;99.90
17489;DHT22;8861;52.644;4.734;2023-09-07T04:50:59;18.10;99.90
17489;DHT22;8861;52.644;4.734;2023-09-07T04:53:28;18.00;99.90
17489;DHT22;8861;52.644;4.734;2023-09-07T04:55:55;18.00;99.90
17489;DHT22;8861;52.644;4.734;2023-09-07T04:58:22;18.00;99.90
17489;DHT22;8861;52.644;4.734;2023-09-07T05:00:49;18.00;99.90
17489;DHT22;8861;52.644;4.734;2023-09-07T05:03:18;17.90;99.90
17489;DHT22;8861;52.644;4.734;2023-09-07T05:05:45;17.90;99.90
17489;DHT22;8861;52.644;4.734;2023-09-07T05:08:17;17.90;99.90
17489;DHT22;8861;52.644;4.734;2023-09-07T05:10:44;17.90;99.90
17489;DHT22;8861;52.644;4.734;2023-09-07T05:13:11;17.90;99.90
17489;DHT22;8861;52.644;4.734;2023-09-07T05:15:47;17.90;99.90
17489;DHT22;8861;52.644;4.734;2023-09-07T05:18:14;17.90;99.90
17489;DHT22;8861;52.644;4.734;2023-09-07T05:20:42;17.90;99.90
17489;DHT22;8861;52.644;4.734;2023-09-07T05:23:10;17.90;99.90
17489;DHT22;8861;52.644;4.734;2023-09-07T05:25:43;17.90;99.90
17489;DHT22;8861;52.644;4.734;2023-09-07T05:28:12;17.90;99.90
17489;DHT22;8861;52.644;4.734;2023-09-07T05:30:40;17.90;99.90
17489;DHT22;8861;52.644;4.734;2023-09-07T05:33:08;17.90;99.90
17489;DHT22;8861;52.644;4.734;2023-09-07T05:35:35;17.90;99.90
17489;DHT22;8861;52.644;4.734;2023-09-07T05:38:05;17.80;99.90
17489;DHT22;8861;52.644;4.734;2023-09-07T05:40:34;17.80;99.90
17489;DHT22;8861;52.644;4.734;2023-09-07T05:43:01;17.80;99.90
17489;DHT22;8861;52.644;4.734;2023-09-07T05:45:29;17.80;99.90
17489;DHT22;8861;52.644;4.734;2023-09-07T05:47:57;17.80;99.90
17489;DHT22;8861;52.644;4.734;2023-09-07T05:50:24;17.80;99.90
17489;DHT22;8861;52.644;4.734;2023-09-07T05:52:51;17.80;99.90
17489;DHT22;8861;52.644;4.734;2023-09-07T05:55:19;17.80;99.90
17489;DHT22;8861;52.644;4.734;2023-09-07T05:57:48;17.80;99.90
17489;DHT22;8861;52.644;4.734;2023-09-07T06:00:16;17.90;99.90
17489;DHT22;8861;52.644;4.734;2023-09-07T06:02:46;17.90;99.90
17489;DHT22;8861;52.644;4.734;2023-09-07T06:05:13;18.00;99.90
17489;DHT22;8861;52.644;4.734;2023-09-07T06:07:43;18.10;99.90
17489;DHT22;8861;52.644;4.734;2023-09-07T06:10:11;18.10;99.90
17489;DHT22;8861;52.644;4.734;2023-09-07T06:12:39;18.10;99.90
17489;DHT22;8861;52.644;4.734;2023-09-07T06:15:07;18.20;99.90
17489;DHT22;8861;52.644;4.734;2023-09-07T06:17:34;18.30;99.90
17489;DHT22;8861;52.644;4.734;2023-09-07T06:20:02;18.40;99.90
17489;DHT22;8861;52.644;4.734;2023-09-07T06:22:30;18.50;99.90
17489;DHT22;8861;52.644;4.734;2023-09-07T06:24:57;18.60;99.90
17489;DHT22;8861;52.644;4.734;2023-09-07T06:27:24;18.70;99.90
17489;DHT22;8861;52.644;4.734;2023-09-07T06:29:52;18.80;99.90
17489;DHT22;8861;52.644;4.734;2023-09-07T06:32:20;18.90;99.90
17489;DHT22;8861;52.644;4.734;2023-09-07T06:34:47;19.00;99.90
17489;DHT22;8861;52.644;4.734;2023-09-07T06:37:14;19.10;99.90
17489;DHT22;8861;52.644;4.734;2023-09-07T06:39:41;19.10;99.90
17489;DHT22;8861;52.644;4.734;2023-09-07T06:42:09;19.20;99.90
17489;DHT22;8861;52.644;4.734;2023-09-07T06:44:36;19.30;99.90
17489;DHT22;8861;52.644;4.734;2023-09-07T06:47:05;19.40;99.90
17489;DHT22;8861;52.644;4.734;2023-09-07T06:49:32;19.40;99.90
17489;DHT22;8861;52.644;4.734;2023-09-07T06:52:00;19.50;99.90
17489;DHT22;8861;52.644;4.734;2023-09-07T06:54:28;19.60;99.90
17489;DHT22;8861;52.644;4.734;2023-09-07T06:56:55;19.70;99.90
17489;DHT22;8861;52.644;4.734;2023-09-07T06:59:22;19.70;99.90
17489;DHT22;8861;52.644;4.734;2023-09-07T07:01:49;19.80;99.90
17489;DHT22;8861;52.644;4.734;2023-09-07T07:04:18;19.90;99.90
17489;DHT22;8861;52.644;4.734;2023-09-07T07:06:45;19.90;99.90
17489;DHT22;8861;52.644;4.734;2023-09-07T07:09:12;20.00;99.90
17489;DHT22;8861;52.644;4.734;2023-09-07T07:11:39;20.10;99.90
17489;DHT22;8861;52.644;4.734;2023-09-07T07:14:08;20.10;99.90
17489;DHT22;8861;52.644;4.734;2023-09-07T07:16:37;20.20;99.90
17489;DHT22;8861;52.644;4.734;2023-09-07T07:19:04;20.20;99.90
17489;DHT22;8861;52.644;4.734;2023-09-07T07:21:33;20.30;99.90
17489;DHT22;8861;52.644;4.734;2023-09-07T07:23:59;20.30;99.90
17489;DHT22;8861;52.644;4.734;2023-09-07T07:26:27;20.40;99.90
17489;DHT22;8861;52.644;4.734;2023-09-07T07:28:54;20.40;99.90
17489;DHT22;8861;52.644;4.734;2023-09-07T07:31:21;20.40;99.90
17489;DHT22;8861;52.644;4.734;2023-09-07T07:33:48;20.50;99.90
17489;DHT22;8861;52.644;4.734;2023-09-07T07:36:15;20.50;99.90
17489;DHT22;8861;52.644;4.734;2023-09-07T07:38:46;20.50;99.90
17489;DHT22;8861;52.644;4.734;2023-09-07T07:41:14;20.60;99.90
17489;DHT22;8861;52.644;4.734;2023-09-07T07:43:40;20.60;99.90
17489;DHT22;8861;52.644;4.734;2023-09-07T07:46:08;20.60;99.90
17489;DHT22;8861;52.644;4.734;2023-09-07T07:48:35;20.70;99.90
17489;DHT22;8861;52.644;4.734;2023-09-07T07:51:03;20.80;99.90
17489;DHT22;8861;52.644;4.734;2023-09-07T07:53:30;20.80;99.90
17489;DHT22;8861;52.644;4.734;2023-09-07T07:55:59;20.90;99.90
17489;DHT22;8861;52.644;4.734;2023-09-07T07:58:26;21.00;99.90
17489;DHT22;8861;52.644;4.734;2023-09-07T08:00:53;21.10;99.90
17489;DHT22;8861;52.644;4.734;2023-09-07T08:03:23;21.10;99.90
17489;DHT22;8861;52.644;4.734;2023-09-07T08:05:50;21.20;99.90
17489;DHT22;8861;52.644;4.734;2023-09-07T08:08:17;21.30;99.90
17489;DHT22;8861;52.644;4.734;2023-09-07T08:10:45;21.30;99.90
17489;DHT22;8861;52.644;4.734;2023-09-07T08:13:13;21.40;99.90
17489;DHT22;8861;52.644;4.734;2023-09-07T08:15:40;21.50;99.90
17489;DHT22;8861;52.644;4.734;2023-09-07T08:18:08;21.60;99.90
17489;DHT22;8861;52.644;4.734;2023-09-07T08:20:35;21.60;99.90
17489;DHT22;8861;52.644;4.734;2023-09-07T08:23:05;21.70;99.90
17489;DHT22;8861;52.644;4.734;2023-09-07T08:25:35;21.80;99.90
17489;DHT22;8861;52.644;4.734;2023-09-07T08:28:02;21.80;99.90
17489;DHT22;8861;52.644;4.734;2023-09-07T08:30:33;21.90;99.90
17489;DHT22;8861;52.644;4.734;2023-09-07T08:33:00;21.90;99.90
17489;DHT22;8861;52.644;4.734;2023-09-07T08:35:28;22.00;99.90
17489;DHT22;8861;52.644;4.734;2023-09-07T08:37:56;22.10;99.90
17489;DHT22;8861;52.644;4.734;2023-09-07T08:40:25;22.10;99.90
17489;DHT22;8861;52.644;4.734;2023-09-07T08:42:53;22.10;99.90
17489;DHT22;8861;52.644;4.734;2023-09-07T08:45:22;22.10;99.90
17489;DHT22;8861;52.644;4.734;2023-09-07T08:47:55;22.20;99.90
17489;DHT22;8861;52.644;4.734;2023-09-07T08:50:23;22.20;99.90
17489;DHT22;8861;52.644;4.734;2023-09-07T08:52:52;22.30;99.90
17489;DHT22;8861;52.644;4.734;2023-09-07T08:55:20;22.30;99.90
17489;DHT22;8861;52.644;4.734;2023-09-07T08:57:48;22.30;99.90
17489;DHT22;8861;52.644;4.734;2023-09-07T09:00:16;22.40;99.90
17489;DHT22;8861;52.644;4.734;2023-09-07T09:02:46;22.40;99.90
17489;DHT22;8861;52.644;4.734;2023-09-07T09:05:15;22.40;99.90
17489;DHT22;8861;52.644;4.734;2023-09-07T09:07:43;22.50;99.90
17489;DHT22;8861;52.644;4.734;2023-09-07T09:10:11;22.50;99.90
17489;DHT22;8861;52.644;4.734;2023-09-07T09:12:45;22.50;99.90
17489;DHT22;8861;52.644;4.734;2023-09-07T09:15:12;22.60;99.90
17489;DHT22;8861;52.644;4.734;2023-09-07T09:17:39;22.70;99.90
17489;DHT22;8861;52.644;4.734;2023-09-07T09:20:21;22.70;99.90
17489;DHT22;8861;52.644;4.734;2023-09-07T09:22:52;22.80;99.90
17489;DHT22;8861;52.644;4.734;2023-09-07T09:25:19;22.80;99.90
17489;DHT22;8861;52.644;4.734;2023-09-07T09:27:47;22.90;99.90
17489;DHT22;8861;52.644;4.734;2023-09-07T09:30:14;23.00;99.90
17489;DHT22;8861;52.644;4.734;2023-09-07T09:32:42;23.00;99.90
17489;DHT22;8861;52.644;4.734;2023-09-07T09:35:09;23.00;99.90
17489;DHT22;8861;52.644;4.734;2023-09-07T09:37:47;23.20;99.90
17489;DHT22;8861;52.644;4.734;2023-09-07T09:40:15;23.20;99.90
17489;DHT22;8861;52.644;4.734;2023-09-07T09:42:43;23.30;99.90
17489;DHT22;8861;52.644;4.734;2023-09-07T09:45:11;23.40;99.90
17489;DHT22;8861;52.644;4.734;2023-09-07T09:47:40;23.50;99.90
17489;DHT22;8861;52.644;4.734;2023-09-07T09:50:09;23.60;99.90
17489;DHT22;8861;52.644;4.734;2023-09-07T09:52:36;23.60;99.90
17489;DHT22;8861;52.644;4.734;2023-09-07T09:55:09;23.70;99.90
17489;DHT22;8861;52.644;4.734;2023-09-07T09:57:38;23.70;99.90
17489;DHT22;8861;52.644;4.734;2023-09-07T10:00:06;23.70;99.90
17489;DHT22;8861;52.644;4.734;2023-09-07T10:03:00;23.80;99.90
17489;DHT22;8861;52.644;4.734;2023-09-07T10:05:30;23.90;99.90
17489;DHT22;8861;52.644;4.734;2023-09-07T10:08:01;23.90;99.90
17489;DHT22;8861;52.644;4.734;2023-09-07T10:10:34;23.90;99.90
17489;DHT22;8861;52.644;4.734;2023-09-07T10:13:03;24.00;99.90
17489;DHT22;8861;52.644;4.734;2023-09-07T10:15:31;24.10;99.90
17489;DHT22;8861;52.644;4.734;2023-09-07T10:18:10;24.10;99.90
17489;DHT22;8861;52.644;4.734;2023-09-07T10:20:50;24.30;99.90
17489;DHT22;8861;52.644;4.734;2023-09-07T10:23:18;24.30;99.90
17489;DHT22;8861;52.644;4.734;2023-09-07T10:25:51;24.30;99.90
17489;DHT22;8861;52.644;4.734;2023-09-07T10:28:22;24.50;99.90
17489;DHT22;8861;52.644;4.734;2023-09-07T10:31:00;24.50;99.90
17489;DHT22;8861;52.644;4.734;2023-09-07T10:33:29;24.50;99.90
17489;DHT22;8861;52.644;4.734;2023-09-07T10:35:57;24.50;99.90
17489;DHT22;8861;52.644;4.734;2023-09-07T10:38:24;24.60;99.90
17489;DHT22;8861;52.644;4.734;2023-09-07T10:40:57;24.70;99.90
17489;DHT22;8861;52.644;4.734;2023-09-07T10:43:27;24.70;99.90
17489;DHT22;8861;52.644;4.734;2023-09-07T10:45:54;24.70;99.90
17489;DHT22;8861;52.644;4.734;2023-09-07T10:48:22;24.80;99.90
17489;DHT22;8861;52.644;4.734;2023-09-07T10:50:49;24.80;99.90
17489;DHT22;8861;52.644;4.734;2023-09-07T10:53:25;24.80;99.90
17489;DHT22;8861;52.644;4.734;2023-09-07T10:55:53;24.90;99.90
17489;DHT22;8861;52.644;4.734;2023-09-07T10:58:28;25.00;99.90
17489;DHT22;8861;52.644;4.734;2023-09-07T11:00:56;25.00;99.90
17489;DHT22;8861;52.644;4.734;2023-09-07T11:03:24;25.00;99.90
17489;DHT22;8861;52.644;4.734;2023-09-07T11:05:53;25.00;99.90
17489;DHT22;8861;52.644;4.734;2023-09-07T11:08:21;25.10;99.90
17489;DHT22;8861;52.644;4.734;2023-09-07T11:10:50;25.10;99.90
17489;DHT22;8861;52.644;4.734;2023-09-07T11:13:17;25.10;99.90
17489;DHT22;8861;52.644;4.734;2023-09-07T11:15:46;25.10;99.90
17489;DHT22;8861;52.644;4.734;2023-09-07T11:18:13;25.20;99.90
17489;DHT22;8861;52.644;4.734;2023-09-07T11:20:40;25.30;99.90
17489;DHT22;8861;52.644;4.734;2023-09-07T11:23:08;25.30;99.90
17489;DHT22;8861;52.644;4.734;2023-09-07T11:25:36;25.40;99.90
17489;DHT22;8861;52.644;4.734;2023-09-07T11:28:04;25.50;99.90
17489;DHT22;8861;52.644;4.734;2023-09-07T11:30:31;25.50;99.90
17489;DHT22;8861;52.644;4.734;2023-09-07T11:33:05;25.50;99.90
17489;DHT22;8861;52.644;4.734;2023-09-07T11:35:32;25.60;99.90
17489;DHT22;8861;52.644;4.734;2023-09-07T11:38:00;25.60;99.90
17489;DHT22;8861;52.644;4.734;2023-09-07T11:40:29;25.70;99.90
17489;DHT22;8861;52.644;4.734;2023-09-07T11:42:56;25.80;99.90
17489;DHT22;8861;52.644;4.734;2023-09-07T11:45:22;25.90;99.90
17489;DHT22;8861;52.644;4.734;2023-09-07T11:47:50;26.00;99.90
17489;DHT22;8861;52.644;4.734;2023-09-07T11:50:18;26.00;99.90
17489;DHT22;8861;52.644;4.734;2023-09-07T11:52:46;26.10;99.90
17489;DHT22;8861;52.644;4.734;2023-09-07T11:55:14;26.20;99.90
17489;DHT22;8861;52.644;4.734;2023-09-07T11:57:41;26.20;99.90
17489;DHT22;8861;52.644;4.734;2023-09-07T12:00:09;26.30;99.90
17489;DHT22;8861;52.644;4.734;2023-09-07T12:02:37;26.40;99.90
17489;DHT22;8861;52.644;4.734;2023-09-07T12:05:05;26.40;99.90
17489;DHT22;8861;52.644;4.734;2023-09-07T12:07:35;26.40;99.90
17489;DHT22;8861;52.644;4.734;2023-09-07T12:10:03;26.40;99.90
17489;DHT22;8861;52.644;4.734;2023-09-07T12:12:30;26.40;99.90
17489;DHT22;8861;52.644;4.734;2023-09-07T12:14:57;26.40;99.90
17489;DHT22;8861;52.644;4.734;2023-09-07T12:17:25;26.50;99.90
17489;DHT22;8861;52.644;4.734;2023-09-07T12:19:52;26.50;99.90
17489;DHT22;8861;52.644;4.734;2023-09-07T12:22:20;26.50;99.90
17489;DHT22;8861;52.644;4.734;2023-09-07T12:24:49;26.40;99.90
17489;DHT22;8861;52.644;4.734;2023-09-07T12:27:16;26.50;99.90
17489;DHT22;8861;52.644;4.734;2023-09-07T12:29:44;26.50;99.90
17489;DHT22;8861;52.644;4.734;2023-09-07T12:32:11;26.50;99.90
17489;DHT22;8861;52.644;4.734;2023-09-07T12:34:38;26.50;99.90
17489;DHT22;8861;52.644;4.734;2023-09-07T12:37:05;26.50;99.90
17489;DHT22;8861;52.644;4.734;2023-09-07T12:39:32;26.50;99.90
17489;DHT22;8861;52.644;4.734;2023-09-07T12:42:01;26.50;99.90
17489;DHT22;8861;52.644;4.734;2023-09-07T12:44:28;26.60;99.90
17489;DHT22;8861;52.644;4.734;2023-09-07T12:46:56;26.60;99.90
17489;DHT22;8861;52.644;4.734;2023-09-07T12:49:23;26.60;99.90
17489;DHT22;8861;52.644;4.734;2023-09-07T12:51:50;26.70;99.90
17489;DHT22;8861;52.644;4.734;2023-09-07T12:54:17;26.80;99.90
17489;DHT22;8861;52.644;4.734;2023-09-07T12:56:44;26.90;99.90
17489;DHT22;8861;52.644;4.734;2023-09-07T12:59:13;26.90;99.90
17489;DHT22;8861;52.644;4.734;2023-09-07T13:01:41;27.00;99.90
17489;DHT22;8861;52.644;4.734;2023-09-07T13:04:08;27.00;99.90
17489;DHT22;8861;52.644;4.734;2023-09-07T13:06:37;27.00;99.90
17489;DHT22;8861;52.644;4.734;2023-09-07T13:09:04;27.00;99.90
17489;DHT22;8861;52.644;4.734;2023-09-07T13:11:31;27.00;99.90
17489;DHT22;8861;52.644;4.734;2023-09-07T13:13:58;27.00;99.90
17489;DHT22;8861;52.644;4.734;2023-09-07T13:16:27;27.20;99.90
17489;DHT22;8861;52.644;4.734;2023-09-07T13:18:54;27.30;99.90
17489;DHT22;8861;52.644;4.734;2023-09-07T13:21:21;27.30;99.90
17489;DHT22;8861;52.644;4.734;2023-09-07T13:23:48;27.30;99.90
17489;DHT22;8861;52.644;4.734;2023-09-07T13:26:16;27.30;99.90
17489;DHT22;8861;52.644;4.734;2023-09-07T13:28:43;27.30;99.90
17489;DHT22;8861;52.644;4.734;2023-09-07T13:31:12;27.30;99.90
17489;DHT22;8861;52.644;4.734;2023-09-07T13:33:41;27.40;99.90
17489;DHT22;8861;52.644;4.734;2023-09-07T13:36:08;27.50;99.90
17489;DHT22;8861;52.644;4.734;2023-09-07T13:38:36;27.70;99.90
17489;DHT22;8861;52.644;4.734;2023-09-07T13:41:03;27.90;99.90
17489;DHT22;8861;52.644;4.734;2023-09-07T13:43:30;27.90;99.90
17489;DHT22;8861;52.644;4.734;2023-09-07T13:45:57;27.90;99.90
17489;DHT22;8861;52.644;4.734;2023-09-07T13:48:24;27.90;99.90
17489;DHT22;8861;52.644;4.734;2023-09-07T13:50:53;27.80;99.90
17489;DHT22;8861;52.644;4.734;2023-09-07T13:53:20;27.80;99.90
17489;DHT22;8861;52.644;4.734;2023-09-07T13:55:47;27.90;99.90
17489;DHT22;8861;52.644;4.734;2023-09-07T13:58:15;27.90;99.90
17489;DHT22;8861;52.644;4.734;2023-09-07T14:00:43;28.00;99.90
17489;DHT22;8861;52.644;4.734;2023-09-07T14:03:10;28.10;99.90
17489;DHT22;8861;52.644;4.734;2023-09-07T14:05:37;28.20;99.90
17489;DHT22;8861;52.644;4.734;2023-09-07T14:08:06;28.20;99.90
17489;DHT22;8861;52.644;4.734;2023-09-07T14:10:33;28.30;99.90
17489;DHT22;8861;52.644;4.734;2023-09-07T14:13:00;28.40;99.90
17489;DHT22;8861;52.644;4.734;2023-09-07T14:15:27;28.70;99.90
17489;DHT22;8861;52.644;4.734;2023-09-07T14:17:55;29.50;99.90
17489;DHT22;8861;52.644;4.734;2023-09-07T14:20:22;30.70;99.90
17489;DHT22;8861;52.644;4.734;2023-09-07T14:22:49;31.60;99.90
17489;DHT22;8861;52.644;4.734;2023-09-07T14:25:17;31.70;99.90
17489;DHT22;8861;52.644;4.734;2023-09-07T14:27:45;31.70;99.90
17489;DHT22;8861;52.644;4.734;2023-09-07T14:30:12;31.50;99.90
17489;DHT22;8861;52.644;4.734;2023-09-07T14:32:39;31.20;99.90
17489;DHT22;8861;52.644;4.734;2023-09-07T14:35:07;30.90;99.90
17489;DHT22;8861;52.644;4.734;2023-09-07T14:37:34;30.80;99.90
17489;DHT22;8861;52.644;4.734;2023-09-07T14:40:01;31.10;99.90
17489;DHT22;8861;52.644;4.734;2023-09-07T14:42:30;31.50;99.90
17489;DHT22;8861;52.644;4.734;2023-09-07T14:44:57;31.90;99.90
17489;DHT22;8861;52.644;4.734;2023-09-07T14:47:28;32.10;99.90
17489;DHT22;8861;52.644;4.734;2023-09-07T14:49:55;32.10;99.90
17489;DHT22;8861;52.644;4.734;2023-09-07T14:52:22;32.00;99.90
17489;DHT22;8861;52.644;4.734;2023-09-07T14:54:50;31.90;99.90
17489;DHT22;8861;52.644;4.734;2023-09-07T14:57:17;31.70;99.90
17489;DHT22;8861;52.644;4.734;2023-09-07T14:59:45;31.40;99.90
17489;DHT22;8861;52.644;4.734;2023-09-07T15:02:12;31.10;99.90
17489;DHT22;8861;52.644;4.734;2023-09-07T15:04:39;30.90;99.90
17489;DHT22;8861;52.644;4.734;2023-09-07T15:07:08;30.60;99.90
17489;DHT22;8861;52.644;4.734;2023-09-07T15:09:35;30.40;99.90
17489;DHT22;8861;52.644;4.734;2023-09-07T15:12:03;30.30;99.90
17489;DHT22;8861;52.644;4.734;2023-09-07T15:14:30;30.10;99.90
17489;DHT22;8861;52.644;4.734;2023-09-07T15:16:58;30.10;99.90
17489;DHT22;8861;52.644;4.734;2023-09-07T15:19:28;30.00;99.90
17489;DHT22;8861;52.644;4.734;2023-09-07T15:21:56;30.00;99.90
17489;DHT22;8861;52.644;4.734;2023-09-07T15:24:23;30.00;99.90
17489;DHT22;8861;52.644;4.734;2023-09-07T15:26:50;29.90;99.90
17489;DHT22;8861;52.644;4.734;2023-09-07T15:29:17;30.00;99.90
17489;DHT22;8861;52.644;4.734;2023-09-07T15:31:44;30.00;99.90
17489;DHT22;8861;52.644;4.734;2023-09-07T15:34:12;29.90;99.90
17489;DHT22;8861;52.644;4.734;2023-09-07T15:36:41;29.90;99.90
17489;DHT22;8861;52.644;4.734;2023-09-07T15:39:09;29.90;99.90
17489;DHT22;8861;52.644;4.734;2023-09-07T15:41:36;29.80;99.90
17489;DHT22;8861;52.644;4.734;2023-09-07T15:44:03;29.80;99.90
17489;DHT22;8861;52.644;4.734;2023-09-07T15:46:30;29.80;99.90
17489;DHT22;8861;52.644;4.734;2023-09-07T15:48:57;29.80;99.90